Keflavik, Iceland

4:04 PM GMT on September 04, 2015 (GMT +0000)
Keflavik | | Change Station
CLOSE
Current Station
Airport
Location: Keflavik,
Elevation: 177 ft
Nearby Weather Stations

Elev 177 ft 63.98 °N, 22.59 °W | Updated 4 minutes ago

Mostly Cloudy
Mostly Cloudy
52 °F
Feels Like 52 °F
N
5
Wind Variable Wind from SW

Today
High -- | Low -- °F
--% Chance of Precip.
Yesterday
High -- | Low -- °F
Precip. -- in
6:20 AM 8:36 PM
Waning Gibbous, 58% visible
Pressure 30.33 in
Visibility 6.2 miles
Clouds Few 1700 ft
Mostly Cloudy 3800 ft
Dew Point 45 °F
Humidity 76%
Rainfall 0.00 in
Snow Depth Not available.
UV 1 out of 12
Pollen Not available.
Air Quality Not available.
Flu Activity Not available.
METAR BIKF 041600Z 23004KT 190V290 9999 FEW017 BKN038 11/07 Q1027
Pressure 30.33 in
Visibility 6.2 miles
Clouds Few 1700 ft
Mostly Cloudy 3800 ft
Dew Point 45 °F
Humidity 76%
Rainfall 0.00 in
Snow Depth Not available.
UV 1 out of 12
Pollen Not available.
Air Quality Not available.
Flu Activity Not available.
METAR BIKF 041600Z 23004KT 190V290 9999 FEW017 BKN038 11/07 Q1027

10-Day Weather Forecast

×

Almanac

Astronomy

Sep. 04, 2015 Rise Set
Actual Time
Civil Twilight
Nautical Twilight
Astronomical Twilight
Moon
Length of Visible Light
Length of Day
Tomorrow will be .
, % of the Moon is Illuminated

Today's Extremes

Country Highs Country Lows

Community

WunderPhotos

Upload Photos

1,852,210 photos uploaded!

WunderBlogs® & News

Nearby

Air Quality

  Air Quality AQ Index Pollutant
Not available.

Snow Depth

Station Depth Elevation

Earthquake Activity

City Distance Mag. Time & Date
Minimum magnitude displayed is 2.5.

Coastal Water Temperatures

Place Temperature

Stations

Nearby Weather Stations

Station Location Temp. Windchill Dew Point Humidity Wind Precip. Elev Updated Type